sensor_id;sensor_type;location;lat;lon;timestamp;temperature;humidity
24614;DHT22;12760;46.296;25.290;2023-03-23T00:01:29;7.60;99.90
24614;DHT22;12760;46.296;25.290;2023-03-23T00:04:02;7.50;99.90
24614;DHT22;12760;46.296;25.290;2023-03-23T00:06:28;7.50;99.90
24614;DHT22;12760;46.296;25.290;2023-03-23T00:09:00;7.40;99.90
24614;DHT22;12760;46.296;25.290;2023-03-23T00:11:30;7.40;99.90
24614;DHT22;12760;46.296;25.290;2023-03-23T00:13:58;7.40;99.90
24614;DHT22;12760;46.296;25.290;2023-03-23T00:16:28;7.40;99.90
24614;DHT22;12760;46.296;25.290;2023-03-23T00:19:00;7.40;99.90
24614;DHT22;12760;46.296;25.290;2023-03-23T00:21:33;7.40;99.90
24614;DHT22;12760;46.296;25.290;2023-03-23T00:24:08;7.40;99.90
24614;DHT22;12760;46.296;25.290;2023-03-23T00:26:36;7.50;99.90
24614;DHT22;12760;46.296;25.290;2023-03-23T00:29:07;7.40;99.90
24614;DHT22;12760;46.296;25.290;2023-03-23T00:31:33;7.30;99.90
24614;DHT22;12760;46.296;25.290;2023-03-23T00:34:01;7.30;99.90
24614;DHT22;12760;46.296;25.290;2023-03-23T00:36:30;7.20;99.90
24614;DHT22;12760;46.296;25.290;2023-03-23T00:38:57;7.30;99.90
24614;DHT22;12760;46.296;25.290;2023-03-23T00:41:24;7.20;99.90
24614;DHT22;12760;46.296;25.290;2023-03-23T00:43:53;7.30;99.90
24614;DHT22;12760;46.296;25.290;2023-03-23T00:46:19;7.20;99.90
24614;DHT22;12760;46.296;25.290;2023-03-23T00:48:46;7.20;99.90
24614;DHT22;12760;46.296;25.290;2023-03-23T00:51:12;7.20;99.90
24614;DHT22;12760;46.296;25.290;2023-03-23T00:53:40;7.20;99.90
24614;DHT22;12760;46.296;25.290;2023-03-23T00:56:08;7.20;99.90
24614;DHT22;12760;46.296;25.290;2023-03-23T00:58:34;7.20;99.90
24614;DHT22;12760;46.296;25.290;2023-03-23T01:01:00;7.20;99.90
24614;DHT22;12760;46.296;25.290;2023-03-23T01:03:26;7.20;99.90
24614;DHT22;12760;46.296;25.290;2023-03-23T01:05:54;7.10;99.90
24614;DHT22;12760;46.296;25.290;2023-03-23T01:08:21;7.00;99.90
24614;DHT22;12760;46.296;25.290;2023-03-23T01:10:47;6.90;99.90
24614;DHT22;12760;46.296;25.290;2023-03-23T01:13:14;6.90;99.90
24614;DHT22;12760;46.296;25.290;2023-03-23T01:15:41;6.90;99.90
24614;DHT22;12760;46.296;25.290;2023-03-23T01:18:08;6.90;99.90
24614;DHT22;12760;46.296;25.290;2023-03-23T01:20:35;6.90;99.90
24614;DHT22;12760;46.296;25.290;2023-03-23T01:23:01;6.80;99.90
24614;DHT22;12760;46.296;25.290;2023-03-23T01:25:32;6.80;99.90
24614;DHT22;12760;46.296;25.290;2023-03-23T01:28:00;6.80;99.90
24614;DHT22;12760;46.296;25.290;2023-03-23T01:30:27;6.80;99.90
24614;DHT22;12760;46.296;25.290;2023-03-23T01:32:54;6.80;99.90
24614;DHT22;12760;46.296;25.290;2023-03-23T01:35:19;6.80;99.90
24614;DHT22;12760;46.296;25.290;2023-03-23T01:37:45;6.90;99.90
24614;DHT22;12760;46.296;25.290;2023-03-23T01:40:13;6.80;99.90
24614;DHT22;12760;46.296;25.290;2023-03-23T01:42:39;6.80;99.90
24614;DHT22;12760;46.296;25.290;2023-03-23T01:45:25;6.70;99.90
24614;DHT22;12760;46.296;25.290;2023-03-23T01:50:28;6.70;99.90
24614;DHT22;12760;46.296;25.290;2023-03-23T01:52:56;6.70;99.90
24614;DHT22;12760;46.296;25.290;2023-03-23T01:55:25;6.70;99.90
24614;DHT22;12760;46.296;25.290;2023-03-23T01:57:52;6.70;99.90
24614;DHT22;12760;46.296;25.290;2023-03-23T02:00:19;6.60;99.90
24614;DHT22;12760;46.296;25.290;2023-03-23T02:02:48;6.60;99.90
24614;DHT22;12760;46.296;25.290;2023-03-23T02:05:30;6.60;99.90
24614;DHT22;12760;46.296;25.290;2023-03-23T02:07:59;6.70;99.90
24614;DHT22;12760;46.296;25.290;2023-03-23T02:10:32;6.60;99.90
24614;DHT22;12760;46.296;25.290;2023-03-23T02:12:59;6.50;99.90
24614;DHT22;12760;46.296;25.290;2023-03-23T02:15:29;6.50;99.90
24614;DHT22;12760;46.296;25.290;2023-03-23T02:21:31;6.40;99.90
24614;DHT22;12760;46.296;25.290;2023-03-23T02:27:01;6.40;99.90
24614;DHT22;12760;46.296;25.290;2023-03-23T02:34:59;6.30;99.90
24614;DHT22;12760;46.296;25.290;2023-03-23T02:37:46;6.40;99.90
24614;DHT22;12760;46.296;25.290;2023-03-23T02:40:33;6.40;99.90
24614;DHT22;12760;46.296;25.290;2023-03-23T02:43:02;6.40;99.90
24614;DHT22;12760;46.296;25.290;2023-03-23T02:45:34;6.30;99.90
24614;DHT22;12760;46.296;25.290;2023-03-23T02:48:02;6.20;99.90
24614;DHT22;12760;46.296;25.290;2023-03-23T02:50:30;6.30;99.90
24614;DHT22;12760;46.296;25.290;2023-03-23T02:52:57;6.30;99.90
24614;DHT22;12760;46.296;25.290;2023-03-23T02:55:25;6.20;99.90
24614;DHT22;12760;46.296;25.290;2023-03-23T02:57:53;6.20;99.90
24614;DHT22;12760;46.296;25.290;2023-03-23T03:00:19;6.10;99.90
24614;DHT22;12760;46.296;25.290;2023-03-23T03:02:51;6.10;99.90
24614;DHT22;12760;46.296;25.290;2023-03-23T03:05:30;6.10;99.90
24614;DHT22;12760;46.296;25.290;2023-03-23T03:10:42;6.10;99.90
24614;DHT22;12760;46.296;25.290;2023-03-23T03:16:08;6.20;99.90
24614;DHT22;12760;46.296;25.290;2023-03-23T03:18:44;6.20;99.90
24614;DHT22;12760;46.296;25.290;2023-03-23T03:21:14;6.20;99.90
24614;DHT22;12760;46.296;25.290;2023-03-23T03:23:42;6.10;99.90
24614;DHT22;12760;46.296;25.290;2023-03-23T03:26:11;6.10;99.90
24614;DHT22;12760;46.296;25.290;2023-03-23T03:28:38;6.10;99.90
24614;DHT22;12760;46.296;25.290;2023-03-23T03:31:05;6.10;99.90
24614;DHT22;12760;46.296;25.290;2023-03-23T03:33:32;6.00;99.90
24614;DHT22;12760;46.296;25.290;2023-03-23T03:36:04;6.00;99.90
24614;DHT22;12760;46.296;25.290;2023-03-23T03:38:42;6.00;99.90
24614;DHT22;12760;46.296;25.290;2023-03-23T03:41:08;5.90;99.90
24614;DHT22;12760;46.296;25.290;2023-03-23T03:43:33;5.90;99.90
24614;DHT22;12760;46.296;25.290;2023-03-23T03:46:00;5.90;99.90
24614;DHT22;12760;46.296;25.290;2023-03-23T03:48:26;5.80;99.90
24614;DHT22;12760;46.296;25.290;2023-03-23T03:50:52;5.80;99.90
24614;DHT22;12760;46.296;25.290;2023-03-23T03:53:18;5.90;99.90
24614;DHT22;12760;46.296;25.290;2023-03-23T03:55:43;5.90;99.90
24614;DHT22;12760;46.296;25.290;2023-03-23T03:58:10;6.00;99.90
24614;DHT22;12760;46.296;25.290;2023-03-23T04:00:36;5.90;99.90
24614;DHT22;12760;46.296;25.290;2023-03-23T04:03:02;5.80;99.90
24614;DHT22;12760;46.296;25.290;2023-03-23T04:05:27;5.80;99.90
24614;DHT22;12760;46.296;25.290;2023-03-23T04:07:56;5.70;99.90
24614;DHT22;12760;46.296;25.290;2023-03-23T04:10:28;5.70;99.90
24614;DHT22;12760;46.296;25.290;2023-03-23T04:12:55;5.70;99.90
24614;DHT22;12760;46.296;25.290;2023-03-23T04:15:21;5.60;99.90
24614;DHT22;12760;46.296;25.290;2023-03-23T04:17:46;5.70;99.90
24614;DHT22;12760;46.296;25.290;2023-03-23T04:20:12;5.60;99.90
24614;DHT22;12760;46.296;25.290;2023-03-23T04:22:45;5.50;99.90
24614;DHT22;12760;46.296;25.290;2023-03-23T04:25:16;5.40;99.90
24614;DHT22;12760;46.296;25.290;2023-03-23T04:27:43;5.40;99.90
24614;DHT22;12760;46.296;25.290;2023-03-23T04:30:12;5.40;99.90
24614;DHT22;12760;46.296;25.290;2023-03-23T04:32:39;5.50;99.90
24614;DHT22;12760;46.296;25.290;2023-03-23T04:35:09;5.50;99.90
24614;DHT22;12760;46.296;25.290;2023-03-23T04:37:36;5.50;99.90
24614;DHT22;12760;46.296;25.290;2023-03-23T04:40:02;5.50;99.90
24614;DHT22;12760;46.296;25.290;2023-03-23T04:42:35;5.50;99.90
24614;DHT22;12760;46.296;25.290;2023-03-23T04:45:03;5.60;99.90
24614;DHT22;12760;46.296;25.290;2023-03-23T04:47:32;5.60;99.90
24614;DHT22;12760;46.296;25.290;2023-03-23T04:49:59;5.70;99.90
24614;DHT22;12760;46.296;25.290;2023-03-23T04:52:27;5.70;99.90
24614;DHT22;12760;46.296;25.290;2023-03-23T04:54:54;5.70;99.90
24614;DHT22;12760;46.296;25.290;2023-03-23T04:57:22;5.80;99.90
24614;DHT22;12760;46.296;25.290;2023-03-23T04:59:48;5.70;99.90
24614;DHT22;12760;46.296;25.290;2023-03-23T05:02:14;5.60;99.90
24614;DHT22;12760;46.296;25.290;2023-03-23T05:04:42;5.50;99.90
24614;DHT22;12760;46.296;25.290;2023-03-23T05:07:08;5.60;99.90
24614;DHT22;12760;46.296;25.290;2023-03-23T05:09:35;5.60;99.90
24614;DHT22;12760;46.296;25.290;2023-03-23T05:12:09;5.60;99.90
24614;DHT22;12760;46.296;25.290;2023-03-23T05:14:35;5.70;99.90
24614;DHT22;12760;46.296;25.290;2023-03-23T05:17:06;5.70;99.90
24614;DHT22;12760;46.296;25.290;2023-03-23T05:19:32;5.70;99.90
24614;DHT22;12760;46.296;25.290;2023-03-23T05:21:58;5.70;99.90
24614;DHT22;12760;46.296;25.290;2023-03-23T05:24:29;5.80;99.90
24614;DHT22;12760;46.296;25.290;2023-03-23T05:26:57;5.80;99.90
24614;DHT22;12760;46.296;25.290;2023-03-23T05:29:22;5.80;99.90
24614;DHT22;12760;46.296;25.290;2023-03-23T05:31:49;5.80;99.90
24614;DHT22;12760;46.296;25.290;2023-03-23T05:34:15;5.90;99.90
24614;DHT22;12760;46.296;25.290;2023-03-23T05:36:42;5.80;99.90
24614;DHT22;12760;46.296;25.290;2023-03-23T05:39:11;5.80;99.90
24614;DHT22;12760;46.296;25.290;2023-03-23T05:41:37;5.80;99.90
24614;DHT22;12760;46.296;25.290;2023-03-23T05:44:04;5.80;99.90
24614;DHT22;12760;46.296;25.290;2023-03-23T05:46:29;5.80;99.90
24614;DHT22;12760;46.296;25.290;2023-03-23T05:48:55;5.80;99.90
24614;DHT22;12760;46.296;25.290;2023-03-23T05:51:21;5.80;99.90
24614;DHT22;12760;46.296;25.290;2023-03-23T05:53:47;5.90;99.90
24614;DHT22;12760;46.296;25.290;2023-03-23T05:56:13;6.00;99.90
24614;DHT22;12760;46.296;25.290;2023-03-23T05:58:39;6.00;99.90
24614;DHT22;12760;46.296;25.290;2023-03-23T06:01:08;6.10;99.90
24614;DHT22;12760;46.296;25.290;2023-03-23T06:03:34;6.20;99.90
24614;DHT22;12760;46.296;25.290;2023-03-23T06:06:04;6.30;99.90
24614;DHT22;12760;46.296;25.290;2023-03-23T06:08:30;6.40;99.90
24614;DHT22;12760;46.296;25.290;2023-03-23T06:10:56;6.50;99.90
24614;DHT22;12760;46.296;25.290;2023-03-23T06:13:22;6.50;99.90
24614;DHT22;12760;46.296;25.290;2023-03-23T06:15:48;6.60;99.90
24614;DHT22;12760;46.296;25.290;2023-03-23T06:18:15;6.60;99.90
24614;DHT22;12760;46.296;25.290;2023-03-23T06:20:41;6.60;99.90
24614;DHT22;12760;46.296;25.290;2023-03-23T06:23:09;6.70;99.90
24614;DHT22;12760;46.296;25.290;2023-03-23T06:25:35;6.80;99.90
24614;DHT22;12760;46.296;25.290;2023-03-23T06:28:00;7.00;99.90
24614;DHT22;12760;46.296;25.290;2023-03-23T06:30:26;7.10;99.90
24614;DHT22;12760;46.296;25.290;2023-03-23T06:32:53;7.40;99.90
24614;DHT22;12760;46.296;25.290;2023-03-23T06:35:19;7.50;99.90
24614;DHT22;12760;46.296;25.290;2023-03-23T06:37:45;7.50;99.90
24614;DHT22;12760;46.296;25.290;2023-03-23T06:40:11;7.60;99.90
24614;DHT22;12760;46.296;25.290;2023-03-23T06:42:37;7.80;99.90
24614;DHT22;12760;46.296;25.290;2023-03-23T06:45:05;8.00;99.90
24614;DHT22;12760;46.296;25.290;2023-03-23T06:47:31;8.20;99.90
24614;DHT22;12760;46.296;25.290;2023-03-23T06:49:59;8.30;99.90
24614;DHT22;12760;46.296;25.290;2023-03-23T06:52:25;8.30;99.90
24614;DHT22;12760;46.296;25.290;2023-03-23T06:54:52;8.40;99.90
24614;DHT22;12760;46.296;25.290;2023-03-23T06:57:18;8.50;99.90
24614;DHT22;12760;46.296;25.290;2023-03-23T06:59:44;8.70;99.90
24614;DHT22;12760;46.296;25.290;2023-03-23T07:02:12;8.90;99.90
24614;DHT22;12760;46.296;25.290;2023-03-23T07:04:39;9.00;99.90
24614;DHT22;12760;46.296;25.290;2023-03-23T07:07:08;9.20;99.90
24614;DHT22;12760;46.296;25.290;2023-03-23T07:09:34;9.30;99.90
24614;DHT22;12760;46.296;25.290;2023-03-23T07:12:00;9.60;99.90
24614;DHT22;12760;46.296;25.290;2023-03-23T07:14:26;9.80;99.90
24614;DHT22;12760;46.296;25.290;2023-03-23T07:16:52;10.10;99.90
24614;DHT22;12760;46.296;25.290;2023-03-23T07:19:19;10.20;99.90
24614;DHT22;12760;46.296;25.290;2023-03-23T07:21:45;10.30;99.90
24614;DHT22;12760;46.296;25.290;2023-03-23T07:24:13;10.50;99.90
24614;DHT22;12760;46.296;25.290;2023-03-23T07:26:40;10.60;99.90
24614;DHT22;12760;46.296;25.290;2023-03-23T07:29:08;10.70;99.90
24614;DHT22;12760;46.296;25.290;2023-03-23T07:31:34;10.70;99.90
24614;DHT22;12760;46.296;25.290;2023-03-23T07:34:00;10.80;99.90
24614;DHT22;12760;46.296;25.290;2023-03-23T07:36:26;10.90;99.90
24614;DHT22;12760;46.296;25.290;2023-03-23T07:38:52;11.10;99.90
24614;DHT22;12760;46.296;25.290;2023-03-23T07:41:18;11.30;99.90
24614;DHT22;12760;46.296;25.290;2023-03-23T07:43:45;11.40;99.90
24614;DHT22;12760;46.296;25.290;2023-03-23T07:46:12;11.50;99.90
24614;DHT22;12760;46.296;25.290;2023-03-23T07:48:38;11.60;99.90
24614;DHT22;12760;46.296;25.290;2023-03-23T07:51:05;11.90;99.90
24614;DHT22;12760;46.296;25.290;2023-03-23T07:53:31;12.00;99.90
24614;DHT22;12760;46.296;25.290;2023-03-23T07:55:57;12.10;99.90
24614;DHT22;12760;46.296;25.290;2023-03-23T07:58:23;12.30;99.90
24614;DHT22;12760;46.296;25.290;2023-03-23T08:00:49;12.40;99.90
24614;DHT22;12760;46.296;25.290;2023-03-23T08:03:15;12.60;99.90
24614;DHT22;12760;46.296;25.290;2023-03-23T08:05:42;12.50;99.90
24614;DHT22;12760;46.296;25.290;2023-03-23T08:08:09;12.70;99.90
24614;DHT22;12760;46.296;25.290;2023-03-23T08:10:35;12.90;99.90
24614;DHT22;12760;46.296;25.290;2023-03-23T08:13:01;12.90;99.90
24614;DHT22;12760;46.296;25.290;2023-03-23T08:15:27;12.90;99.90
24614;DHT22;12760;46.296;25.290;2023-03-23T08:17:54;13.10;99.90
24614;DHT22;12760;46.296;25.290;2023-03-23T08:20:20;13.30;99.90
24614;DHT22;12760;46.296;25.290;2023-03-23T08:22:51;13.40;99.90
24614;DHT22;12760;46.296;25.290;2023-03-23T08:25:18;13.50;99.90
24614;DHT22;12760;46.296;25.290;2023-03-23T08:27:44;13.70;99.90
24614;DHT22;12760;46.296;25.290;2023-03-23T08:30:15;13.90;99.90
24614;DHT22;12760;46.296;25.290;2023-03-23T08:32:42;14.20;99.90
24614;DHT22;12760;46.296;25.290;2023-03-23T08:35:09;14.40;99.90
24614;DHT22;12760;46.296;25.290;2023-03-23T08:37:36;14.50;99.90
24614;DHT22;12760;46.296;25.290;2023-03-23T08:40:04;14.60;99.90
24614;DHT22;12760;46.296;25.290;2023-03-23T08:42:34;14.80;99.90
24614;DHT22;12760;46.296;25.290;2023-03-23T08:45:00;14.90;99.90
24614;DHT22;12760;46.296;25.290;2023-03-23T08:47:26;15.00;99.90
24614;DHT22;12760;46.296;25.290;2023-03-23T08:49:52;15.10;99.90
24614;DHT22;12760;46.296;25.290;2023-03-23T08:52:19;15.30;99.90
24614;DHT22;12760;46.296;25.290;2023-03-23T08:54:45;15.30;99.90
24614;DHT22;12760;46.296;25.290;2023-03-23T08:57:13;15.30;99.90
24614;DHT22;12760;46.296;25.290;2023-03-23T08:59:40;15.40;99.90
24614;DHT22;12760;46.296;25.290;2023-03-23T09:02:09;15.70;99.90
24614;DHT22;12760;46.296;25.290;2023-03-23T09:04:35;15.70;99.90
24614;DHT22;12760;46.296;25.290;2023-03-23T09:07:02;15.80;99.90
24614;DHT22;12760;46.296;25.290;2023-03-23T09:09:28;15.90;99.90
24614;DHT22;12760;46.296;25.290;2023-03-23T09:11:54;15.80;99.90
24614;DHT22;12760;46.296;25.290;2023-03-23T09:14:20;15.80;99.90
24614;DHT22;12760;46.296;25.290;2023-03-23T09:16:45;15.70;99.90
24614;DHT22;12760;46.296;25.290;2023-03-23T09:19:12;15.90;99.90
24614;DHT22;12760;46.296;25.290;2023-03-23T09:21:38;16.00;99.90
24614;DHT22;12760;46.296;25.290;2023-03-23T09:24:04;16.10;99.90
24614;DHT22;12760;46.296;25.290;2023-03-23T09:26:31;16.10;99.90
24614;DHT22;12760;46.296;25.290;2023-03-23T09:28:57;16.10;99.90
24614;DHT22;12760;46.296;25.290;2023-03-23T09:31:24;16.20;99.90
24614;DHT22;12760;46.296;25.290;2023-03-23T09:33:53;16.00;99.90
24614;DHT22;12760;46.296;25.290;2023-03-23T09:36:21;16.20;99.90
24614;DHT22;12760;46.296;25.290;2023-03-23T09:38:47;16.30;99.90
24614;DHT22;12760;46.296;25.290;2023-03-23T09:41:39;16.30;99.90
24614;DHT22;12760;46.296;25.290;2023-03-23T09:44:21;16.40;99.90
24614;DHT22;12760;46.296;25.290;2023-03-23T09:49:32;16.60;99.90
24614;DHT22;12760;46.296;25.290;2023-03-23T09:52:11;16.80;99.90
24614;DHT22;12760;46.296;25.290;2023-03-23T10:00:02;16.80;99.90
24614;DHT22;12760;46.296;25.290;2023-03-23T10:02:39;16.70;99.70
24614;DHT22;12760;46.296;25.290;2023-03-23T10:05:29;16.60;99.90
24614;DHT22;12760;46.296;25.290;2023-03-23T10:07:56;16.90;99.90
24614;DHT22;12760;46.296;25.290;2023-03-23T10:10:50;16.90;99.40
24614;DHT22;12760;46.296;25.290;2023-03-23T10:13:40;17.00;98.80
24614;DHT22;12760;46.296;25.290;2023-03-23T10:16:24;17.10;98.50
24614;DHT22;12760;46.296;25.290;2023-03-23T10:19:17;17.20;98.20
24614;DHT22;12760;46.296;25.290;2023-03-23T10:21:52;17.30;99.50
24614;DHT22;12760;46.296;25.290;2023-03-23T10:24:43;17.50;98.70
24614;DHT22;12760;46.296;25.290;2023-03-23T10:27:22;17.40;97.90
24614;DHT22;12760;46.296;25.290;2023-03-23T10:32:47;17.70;99.10
24614;DHT22;12760;46.296;25.290;2023-03-23T10:35:20;17.80;98.80
24614;DHT22;12760;46.296;25.290;2023-03-23T10:37:52;17.80;97.30
24614;DHT22;12760;46.296;25.290;2023-03-23T10:40:23;17.70;97.60
24614;DHT22;12760;46.296;25.290;2023-03-23T10:42:49;17.60;97.30
24614;DHT22;12760;46.296;25.290;2023-03-23T10:48:11;17.50;97.80
24614;DHT22;12760;46.296;25.290;2023-03-23T10:50:38;17.30;97.40
24614;DHT22;12760;46.296;25.290;2023-03-23T10:55:57;17.30;97.40
24614;DHT22;12760;46.296;25.290;2023-03-23T10:58:29;17.20;96.90
24614;DHT22;12760;46.296;25.290;2023-03-23T11:01:01;17.20;97.20
24614;DHT22;12760;46.296;25.290;2023-03-23T11:06:06;17.40;98.30
24614;DHT22;12760;46.296;25.290;2023-03-23T11:08:36;17.60;98.20
24614;DHT22;12760;46.296;25.290;2023-03-23T11:11:17;17.50;96.60
24614;DHT22;12760;46.296;25.290;2023-03-23T11:13:46;17.70;98.00
24614;DHT22;12760;46.296;25.290;2023-03-23T11:16:33;17.70;96.50
24614;DHT22;12760;46.296;25.290;2023-03-23T11:19:00;17.90;98.00
24614;DHT22;12760;46.296;25.290;2023-03-23T11:21:37;18.10;97.20
24614;DHT22;12760;46.296;25.290;2023-03-23T11:24:04;18.30;97.30
24614;DHT22;12760;46.296;25.290;2023-03-23T11:26:33;18.20;95.70
24614;DHT22;12760;46.296;25.290;2023-03-23T11:29:14;18.20;95.60
24614;DHT22;12760;46.296;25.290;2023-03-23T11:31:47;18.20;95.80
24614;DHT22;12760;46.296;25.290;2023-03-23T11:34:23;18.40;96.00
24614;DHT22;12760;46.296;25.290;2023-03-23T11:41:48;18.10;95.00
24614;DHT22;12760;46.296;25.290;2023-03-23T11:44:14;18.10;94.60
24614;DHT22;12760;46.296;25.290;2023-03-23T11:47:04;18.20;95.50
24614;DHT22;12760;46.296;25.290;2023-03-23T11:49:41;18.20;95.70
24614;DHT22;12760;46.296;25.290;2023-03-23T11:55:07;18.00;94.50
24614;DHT22;12760;46.296;25.290;2023-03-23T11:57:35;17.70;94.20
24614;DHT22;12760;46.296;25.290;2023-03-23T12:00:05;17.80;94.60
24614;DHT22;12760;46.296;25.290;2023-03-23T12:06:03;17.70;94.90
24614;DHT22;12760;46.296;25.290;2023-03-23T12:12:53;17.80;94.20
24614;DHT22;12760;46.296;25.290;2023-03-23T12:20:31;18.20;94.30
24614;DHT22;12760;46.296;25.290;2023-03-23T12:30:55;18.60;94.50
24614;DHT22;12760;46.296;25.290;2023-03-23T12:33:50;18.80;93.40
24614;DHT22;12760;46.296;25.290;2023-03-23T12:42:14;18.80;94.20
24614;DHT22;12760;46.296;25.290;2023-03-23T12:44:52;18.70;94.40
24614;DHT22;12760;46.296;25.290;2023-03-23T12:50:03;19.00;94.90
24614;DHT22;12760;46.296;25.290;2023-03-23T12:52:54;19.10;94.00
24614;DHT22;12760;46.296;25.290;2023-03-23T12:58:17;19.10;92.90
24614;DHT22;12760;46.296;25.290;2023-03-23T13:01:04;19.20;94.10
24614;DHT22;12760;46.296;25.290;2023-03-23T13:03:44;19.20;93.20
24614;DHT22;12760;46.296;25.290;2023-03-23T13:06:19;19.20;93.20
24614;DHT22;12760;46.296;25.290;2023-03-23T13:09:01;19.20;91.50
24614;DHT22;12760;46.296;25.290;2023-03-23T13:11:34;19.20;90.10
24614;DHT22;12760;46.296;25.290;2023-03-23T13:24:55;19.10;91.70
24614;DHT22;12760;46.296;25.290;2023-03-23T13:27:26;19.10;91.70
24614;DHT22;12760;46.296;25.290;2023-03-23T13:29:58;19.00;90.30
24614;DHT22;12760;46.296;25.290;2023-03-23T13:32:35;18.80;89.40
24614;DHT22;12760;46.296;25.290;2023-03-23T13:35:11;18.80;90.20
24614;DHT22;12760;46.296;25.290;2023-03-23T13:37:44;18.60;90.20
24614;DHT22;12760;46.296;25.290;2023-03-23T13:42:48;18.60;91.50
24614;DHT22;12760;46.296;25.290;2023-03-23T13:45:24;18.50;91.20
24614;DHT22;12760;46.296;25.290;2023-03-23T13:51:00;18.70;91.30
24614;DHT22;12760;46.296;25.290;2023-03-23T13:53:46;18.60;91.00
24614;DHT22;12760;46.296;25.290;2023-03-23T13:56:40;18.70;91.10
24614;DHT22;12760;46.296;25.290;2023-03-23T13:59:12;18.80;90.60
24614;DHT22;12760;46.296;25.290;2023-03-23T14:01:39;18.70;90.60
24614;DHT22;12760;46.296;25.290;2023-03-23T14:04:14;18.60;90.20
24614;DHT22;12760;46.296;25.290;2023-03-23T14:06:41;18.60;90.50
24614;DHT22;12760;46.296;25.290;2023-03-23T14:11:55;18.70;90.50
24614;DHT22;12760;46.296;25.290;2023-03-23T14:14:40;18.60;89.10
24614;DHT22;12760;46.296;25.290;2023-03-23T14:17:18;18.50;90.10
24614;DHT22;12760;46.296;25.290;2023-03-23T14:19:49;18.50;90.40
24614;DHT22;12760;46.296;25.290;2023-03-23T14:22:36;18.50;90.80
24614;DHT22;12760;46.296;25.290;2023-03-23T14:25:15;18.60;90.80
24614;DHT22;12760;46.296;25.290;2023-03-23T14:27:42;18.60;88.50
24614;DHT22;12760;46.296;25.290;2023-03-23T14:30:14;18.60;88.20
24614;DHT22;12760;46.296;25.290;2023-03-23T14:32:40;18.60;89.10
24614;DHT22;12760;46.296;25.290;2023-03-23T14:35:34;18.60;89.30
24614;DHT22;12760;46.296;25.290;2023-03-23T14:38:00;18.40;86.90
24614;DHT22;12760;46.296;25.290;2023-03-23T14:40:27;18.30;89.10
24614;DHT22;12760;46.296;25.290;2023-03-23T14:42:54;18.20;88.90
24614;DHT22;12760;46.296;25.290;2023-03-23T14:45:22;18.20;88.40
24614;DHT22;12760;46.296;25.290;2023-03-23T14:47:52;18.20;89.80
24614;DHT22;12760;46.296;25.290;2023-03-23T14:50:26;18.20;90.20
24614;DHT22;12760;46.296;25.290;2023-03-23T14:52:57;18.10;91.00
24614;DHT22;12760;46.296;25.290;2023-03-23T14:55:23;18.20;90.20
24614;DHT22;12760;46.296;25.290;2023-03-23T14:57:51;18.20;90.30
24614;DHT22;12760;46.296;25.290;2023-03-23T15:00:29;18.20;90.30
24614;DHT22;12760;46.296;25.290;2023-03-23T15:02:59;18.20;89.20
24614;DHT22;12760;46.296;25.290;2023-03-23T15:05:32;18.20;88.20
24614;DHT22;12760;46.296;25.290;2023-03-23T15:08:04;18.10;88.70
24614;DHT22;12760;46.296;25.290;2023-03-23T15:10:31;18.10;89.50
24614;DHT22;12760;46.296;25.290;2023-03-23T15:12:57;18.10;88.30
24614;DHT22;12760;46.296;25.290;2023-03-23T15:15:32;18.10;88.50
24614;DHT22;12760;46.296;25.290;2023-03-23T15:17:59;18.10;87.90
24614;DHT22;12760;46.296;25.290;2023-03-23T15:20:30;18.10;89.80
24614;DHT22;12760;46.296;25.290;2023-03-23T15:23:04;18.10;88.90
24614;DHT22;12760;46.296;25.290;2023-03-23T15:25:33;18.10;89.80
24614;DHT22;12760;46.296;25.290;2023-03-23T15:31:00;18.00;89.50
24614;DHT22;12760;46.296;25.290;2023-03-23T15:33:26;18.00;90.80
24614;DHT22;12760;46.296;25.290;2023-03-23T15:35:55;17.90;90.60
24614;DHT22;12760;46.296;25.290;2023-03-23T15:38:28;17.90;90.50
24614;DHT22;12760;46.296;25.290;2023-03-23T15:40:56;17.90;90.50
24614;DHT22;12760;46.296;25.290;2023-03-23T15:43:27;17.80;90.80
24614;DHT22;12760;46.296;25.290;2023-03-23T15:46:20;17.80;90.90
24614;DHT22;12760;46.296;25.290;2023-03-23T15:51:30;17.70;91.50
24614;DHT22;12760;46.296;25.290;2023-03-23T15:53:58;17.60;91.50
24614;DHT22;12760;46.296;25.290;2023-03-23T15:56:24;17.60;91.70
24614;DHT22;12760;46.296;25.290;2023-03-23T15:58:52;17.50;91.90
24614;DHT22;12760;46.296;25.290;2023-03-23T16:01:21;17.40;91.90
24614;DHT22;12760;46.296;25.290;2023-03-23T16:03:57;17.40;91.80
24614;DHT22;12760;46.296;25.290;2023-03-23T16:06:27;17.30;92.30
24614;DHT22;12760;46.296;25.290;2023-03-23T16:08:55;17.20;92.40
24614;DHT22;12760;46.296;25.290;2023-03-23T16:11:21;17.20;92.50
24614;DHT22;12760;46.296;25.290;2023-03-23T16:13:47;17.10;92.70
24614;DHT22;12760;46.296;25.290;2023-03-23T16:18:41;16.90;93.10
24614;DHT22;12760;46.296;25.290;2023-03-23T16:21:07;16.90;93.20
24614;DHT22;12760;46.296;25.290;2023-03-23T16:23:32;16.80;93.20
24614;DHT22;12760;46.296;25.290;2023-03-23T16:25:58;16.80;93.20
24614;DHT22;12760;46.296;25.290;2023-03-23T16:28:24;16.80;93.00
24614;DHT22;12760;46.296;25.290;2023-03-23T16:30:50;16.70;93.40
24614;DHT22;12760;46.296;25.290;2023-03-23T16:33:15;16.60;93.60
24614;DHT22;12760;46.296;25.290;2023-03-23T16:35:41;16.60;93.60
24614;DHT22;12760;46.296;25.290;2023-03-23T16:38:14;16.60;93.70
24614;DHT22;12760;46.296;25.290;2023-03-23T16:40:44;16.50;94.50
24614;DHT22;12760;46.296;25.290;2023-03-23T16:43:11;16.40;94.80
24614;DHT22;12760;46.296;25.290;2023-03-23T16:45:39;16.30;94.70
24614;DHT22;12760;46.296;25.290;2023-03-23T16:48:05;16.30;94.40
24614;DHT22;12760;46.296;25.290;2023-03-23T16:50:33;16.10;94.70
24614;DHT22;12760;46.296;25.290;2023-03-23T16:52:59;16.00;94.70
24614;DHT22;12760;46.296;25.290;2023-03-23T16:55:25;15.90;94.30
24614;DHT22;12760;46.296;25.290;2023-03-23T16:57:53;15.80;94.60
24614;DHT22;12760;46.296;25.290;2023-03-23T17:00:19;15.70;95.20
24614;DHT22;12760;46.296;25.290;2023-03-23T17:02:48;15.50;95.50
24614;DHT22;12760;46.296;25.290;2023-03-23T17:05:17;15.40;95.80
24614;DHT22;12760;46.296;25.290;2023-03-23T17:07:44;15.40;95.90
24614;DHT22;12760;46.296;25.290;2023-03-23T17:10:10;15.20;96.00
24614;DHT22;12760;46.296;25.290;2023-03-23T17:12:37;15.10;96.30
24614;DHT22;12760;46.296;25.290;2023-03-23T17:15:04;15.00;96.80
24614;DHT22;12760;46.296;25.290;2023-03-23T17:17:30;14.90;96.80
24614;DHT22;12760;46.296;25.290;2023-03-23T17:19:56;14.80;97.50
24614;DHT22;12760;46.296;25.290;2023-03-23T17:22:23;14.80;97.20
24614;DHT22;12760;46.296;25.290;2023-03-23T17:24:48;14.70;97.40